Time;durP1;ratioP1;P1;durP2;ratioP2;P2;SDS_P1;SDS_P2;PMS_P1;PMS_P2;Temp;Humidity;BMP_temperature;BMP_pressure;BME280_temperature;BME280_humidity;BME280_pressure;Samples;Min_cycle;Max_cycle;Signal;HPM_P1;HPM_P2
2022/10/27 00:00:09;;;;;;;8.55;2.85;;;10.70;99.90;;;;;;4779750;29;20815;-57
2022/10/27 00:02:42;;;;;;;12.10;2.83;;;10.70;99.90;;;;;;4778525;29;20404;-58
2022/10/27 00:05:09;;;;;;;11.35;3.20;;;10.70;99.90;;;;;;4792479;29;20494;-56
2022/10/27 00:07:37;;;;;;;8.05;2.65;;;10.70;99.90;;;;;;4778701;29;20442;-57
2022/10/27 00:10:05;;;;;;;6.93;2.65;;;10.70;99.90;;;;;;4793149;29;20383;-57
2022/10/27 00:12:33;;;;;;;8.13;2.60;;;10.70;99.90;;;;;;4777968;29;20897;-57
2022/10/27 00:15:01;;;;;;;29.48;3.83;;;10.60;99.90;;;;;;4778635;29;20470;-56
2022/10/27 00:17:28;;;;;;;13.00;3.10;;;10.60;99.90;;;;;;4777729;29;20563;-55
2022/10/27 00:19:55;;;;;;;22.25;5.07;;;10.60;99.90;;;;;;4779164;29;20759;-57
2022/10/27 00:22:22;;;;;;;;;;;10.50;99.90;;;;;;4792835;29;20416;-57
2022/10/27 00:24:49;;;;;;;11.63;3.30;;;10.50;99.90;;;;;;4779905;29;20191;-57
2022/10/27 00:27:16;;;;;;;13.23;3.80;;;10.50;99.90;;;;;;4759846;29;20725;-57
2022/10/27 00:29:44;;;;;;;12.48;2.80;;;10.50;99.90;;;;;;4779014;29;20096;-56
2022/10/27 00:32:11;;;;;;;7.80;2.88;;;10.40;99.90;;;;;;4778093;29;20904;-57
2022/10/27 00:34:38;;;;;;;;;;;10.40;99.90;;;;;;4779182;29;20157;-56
2022/10/27 00:37:05;;;;;;;11.93;2.83;;;10.40;99.90;;;;;;4792161;29;20311;-58
2022/10/27 00:39:32;;;;;;;11.35;3.00;;;10.40;99.90;;;;;;4778464;29;20813;-57
2022/10/27 00:41:59;;;;;;;;;;;10.40;99.90;;;;;;4779945;29;20496;-57
2022/10/27 00:44:32;;;;;;;11.95;2.45;;;10.30;99.90;;;;;;4755180;29;20642;-56
2022/10/27 00:47:06;;;;;;;8.25;2.78;;;10.30;99.90;;;;;;4777354;29;20409;-56
2022/10/27 00:50:03;;;;;;;9.77;3.60;;;10.30;99.90;;;;;;4792269;29;20581;-56
2022/10/27 00:52:33;;;;;;;12.68;3.38;;;10.30;99.90;;;;;;4778338;29;20301;-56
2022/10/27 00:55:23;;;;;;;7.28;2.90;;;10.30;99.90;;;;;;4776523;29;20703;-57
2022/10/27 00:57:53;;;;;;;8.77;2.83;;;10.30;99.90;;;;;;4777768;29;20205;-56
2022/10/27 01:00:20;;;;;;;9.15;3.25;;;10.30;99.90;;;;;;4778675;29;20049;-57
2022/10/27 01:02:48;;;;;;;6.05;2.45;;;10.30;99.90;;;;;;4777171;29;20529;-56
2022/10/27 01:05:24;;;;;;;5.70;2.30;;;10.30;99.90;;;;;;4791939;29;20371;-56
2022/10/27 01:07:55;;;;;;;15.77;2.80;;;10.30;99.90;;;;;;4778720;29;20324;-57
2022/10/27 01:10:24;;;;;;;16.63;3.90;;;10.20;99.90;;;;;;4778175;29;20366;-56
2022/10/27 01:12:52;;;;;;;9.38;2.88;;;10.20;99.90;;;;;;4777707;29;20287;-56
2022/10/27 01:15:44;;;;;;;6.32;2.20;;;10.20;99.90;;;;;;4777557;29;20164;-57
2022/10/27 01:18:53;;;;;;;9.48;2.92;;;10.20;99.90;;;;;;4778351;29;20376;-57
2022/10/27 01:21:48;;;;;;;5.22;2.47;;;10.10;99.90;;;;;;4777482;29;20333;-57
2022/10/27 01:24:42;;;;;;;12.65;2.67;;;10.10;99.90;;;;;;4775088;29;20317;-57
2022/10/27 01:27:24;;;;;;;13.13;3.22;;;10.10;99.90;;;;;;4777874;29;20298;-57
2022/10/27 01:30:08;;;;;;;8.68;2.53;;;10.10;99.90;;;;;;4791482;29;20149;-57
2022/10/27 01:32:49;;;;;;;4.70;2.28;;;10.20;99.90;;;;;;4777685;29;20743;-55
2022/10/27 01:35:35;;;;;;;12.85;2.50;;;10.20;99.90;;;;;;4777161;29;20260;-57
2022/10/27 01:38:14;;;;;;;8.80;2.83;;;10.20;99.90;;;;;;4777692;29;20521;-57
2022/10/27 01:40:50;;;;;;;12.45;3.28;;;10.10;99.90;;;;;;4790730;29;20328;-55
2022/10/27 01:43:22;;;;;;;6.05;2.53;;;10.10;99.90;;;;;;4778320;29;20879;-55
2022/10/27 01:45:50;;;;;;;9.52;3.03;;;10.10;99.90;;;;;;4758560;29;20080;-57
2022/10/27 01:48:18;;;;;;;10.00;3.00;;;10.10;99.90;;;;;;4776404;29;20341;-57
2022/10/27 01:50:45;;;;;;;10.90;2.65;;;10.10;99.90;;;;;;4778222;29;20328;-57
2022/10/27 01:53:31;;;;;;;6.63;2.63;;;10.10;99.90;;;;;;4777444;29;20391;-56
2022/10/27 01:56:04;;;;;;;9.18;3.35;;;10.10;99.90;;;;;;4791265;29;20337;-57
2022/10/27 01:58:46;;;;;;;8.55;3.08;;;10.00;99.90;;;;;;4777159;29;21014;-57
2022/10/27 02:01:32;;;;;;;11.25;2.83;;;10.00;99.90;;;;;;4791379;29;20562;-57
2022/10/27 02:04:21;;;;;;;8.65;2.75;;;10.00;99.90;;;;;;4776607;29;20905;-56
2022/10/27 02:07:10;;;;;;;5.10;2.45;;;10.00;99.90;;;;;;4777801;29;20531;-57
2022/10/27 02:10:16;;;;;;;9.35;2.75;;;9.90;99.90;;;;;;4777036;29;20156;-58
2022/10/27 02:12:45;;;;;;;18.70;3.92;;;9.90;99.90;;;;;;4772405;29;20613;-57
2022/10/27 02:15:51;;;;;;;9.07;2.50;;;9.90;99.90;;;;;;4777866;29;20152;-58
2022/10/27 02:18:46;;;;;;;8.32;2.80;;;9.80;99.90;;;;;;4777756;29;20980;-58
2022/10/27 02:21:14;;;;;;;11.15;3.05;;;9.80;99.90;;;;;;4777016;29;20688;-57
2022/10/27 02:23:42;;;;;;;7.40;3.38;;;9.70;99.90;;;;;;4756315;29;20405;-58
2022/10/27 02:26:22;;;;;;;8.60;2.30;;;9.70;99.90;;;;;;4790734;29;20109;-57
2022/10/27 02:28:58;;;;;;;6.82;2.72;;;9.70;99.90;;;;;;4776992;29;20716;-56
2022/10/27 02:31:30;;;;;;;11.23;2.70;;;9.60;99.90;;;;;;4790779;29;20217;-57
2022/10/27 02:33:58;;;;;;;12.23;4.45;;;9.60;99.90;;;;;;4773688;29;20591;-56
2022/10/27 02:36:26;;;;;;;17.98;3.17;;;9.60;99.90;;;;;;4776761;29;20493;-58
2022/10/27 02:38:53;;;;;;;9.38;2.80;;;9.60;99.90;;;;;;4761739;29;20259;-57
2022/10/27 02:41:20;;;;;;;;;;;9.70;99.90;;;;;;4775074;29;20366;-56
2022/10/27 02:43:47;;;;;;;8.25;3.17;;;9.60;99.90;;;;;;4777443;29;19928;-57
2022/10/27 02:46:14;;;;;;;4.47;2.67;;;9.70;99.90;;;;;;4773871;29;20376;-57
2022/10/27 02:48:41;;;;;;;5.90;3.00;;;9.70;99.90;;;;;;4776016;29;20244;-57
2022/10/27 02:51:08;;;;;;;12.73;2.40;;;9.70;99.90;;;;;;4781094;29;20171;-57
2022/10/27 02:53:35;;;;;;;12.98;3.05;;;9.70;99.90;;;;;;4777626;29;20267;-57
2022/10/27 02:56:03;;;;;;;6.80;2.47;;;9.70;99.90;;;;;;4780320;29;20743;-56
2022/10/27 02:58:30;;;;;;;7.80;2.38;;;9.70;99.90;;;;;;4793313;29;20387;-57
2022/10/27 03:00:57;;;;;;;9.68;2.00;;;9.80;99.90;;;;;;4779004;29;20402;-57
2022/10/27 03:03:24;;;;;;;10.23;2.80;;;9.70;99.90;;;;;;4762670;29;20506;-57
2022/10/27 03:05:51;;;;;;;9.93;2.28;;;9.70;99.90;;;;;;4778286;29;20220;-57
2022/10/27 03:08:18;;;;;;;;;;;9.70;99.90;;;;;;4781242;29;20412;-56
2022/10/27 03:10:45;;;;;;;10.85;3.25;;;9.70;99.90;;;;;;4793640;29;19928;-57
2022/10/27 03:13:12;;;;;;;10.55;3.00;;;9.60;99.90;;;;;;4792733;29;20577;-57
2022/10/27 03:15:39;;;;;;;19.45;3.05;;;9.60;99.90;;;;;;4778462;29;20329;-56
2022/10/27 03:18:06;;;;;;;12.18;2.83;;;9.60;99.90;;;;;;4779329;29;20202;-56
2022/10/27 03:20:33;;;;;;;12.40;2.72;;;9.50;99.90;;;;;;4780584;29;20118;-56
2022/10/27 03:23:00;;;;;;;11.00;2.45;;;9.50;99.90;;;;;;4778617;29;20462;-56
2022/10/27 03:25:27;;;;;;;9.50;2.90;;;9.50;99.90;;;;;;4793980;29;20308;-56
2022/10/27 03:27:55;;;;;;;10.98;3.17;;;9.50;99.90;;;;;;4765284;29;20290;-57
2022/10/27 03:30:22;;;;;;;10.38;2.58;;;9.50;99.90;;;;;;4780012;29;20398;-54
2022/10/27 03:32:50;;;;;;;;;;;9.50;99.90;;;;;;4780308;29;20594;-55
2022/10/27 03:35:18;;;;;;;8.77;2.70;;;9.60;99.90;;;;;;4761960;29;20741;-55
2022/10/27 03:37:53;;;;;;;9.82;2.70;;;9.60;99.90;;;;;;4780080;29;20219;-57
2022/10/27 03:40:20;;;;;;;11.25;3.30;;;9.60;99.90;;;;;;4761650;29;20526;-56
2022/10/27 03:42:47;;;;;;;;;;;9.60;99.90;;;;;;4780396;29;20893;-56
2022/10/27 03:45:14;;;;;;;7.90;2.53;;;9.50;99.90;;;;;;4793385;29;20418;-56
2022/10/27 03:47:41;;;;;;;9.55;3.03;;;9.50;99.90;;;;;;4766276;29;20403;-56
2022/10/27 03:50:09;;;;;;;7.75;2.20;;;9.50;99.90;;;;;;4778290;29;20691;-56
2022/10/27 03:52:36;;;;;;;7.40;3.80;;;9.50;99.90;;;;;;4767767;29;20602;-55
2022/10/27 03:55:05;;;;;;;9.80;2.30;;;9.50;99.90;;;;;;4779050;29;20392;-56
2022/10/27 03:57:33;;;;;;;11.45;3.00;;;9.40;99.90;;;;;;4778934;29;20264;-56
2022/10/27 03:59:59;;;;;;;;;;;9.40;99.90;;;;;;4779484;29;20609;-54
2022/10/27 04:02:26;;;;;;;9.13;2.85;;;9.40;99.90;;;;;;4792183;29;20418;-55
2022/10/27 04:04:56;;;;;;;10.73;2.65;;;9.40;99.90;;;;;;4792138;29;20502;-56
2022/10/27 04:07:23;;;;;;;8.07;2.95;;;9.40;99.90;;;;;;4779301;29;20316;-55
2022/10/27 04:09:50;;;;;;;;;;;9.40;99.90;;;;;;4763282;29;20165;-56
2022/10/27 04:12:16;;;;;;;11.27;3.10;;;9.40;99.90;;;;;;4778136;29;20208;-55
2022/10/27 04:14:43;;;;;;;10.40;2.83;;;9.50;99.90;;;;;;4779409;29;20378;-56
2022/10/27 04:17:10;;;;;;;10.85;3.17;;;9.50;99.90;;;;;;4776612;29;20377;-56
2022/10/27 04:19:37;;;;;;;16.98;3.60;;;9.50;99.90;;;;;;4779323;29;20281;-57
2022/10/27 04:22:04;;;;;;;;;;;9.50;99.90;;;;;;4779797;29;20316;-56
2022/10/27 04:24:32;;;;;;;5.80;2.88;;;9.60;99.90;;;;;;4791703;29;20236;-57
2022/10/27 04:26:58;;;;;;;8.57;2.50;;;9.60;99.90;;;;;;4779023;29;20313;-56
2022/10/27 04:29:25;;;;;;;8.57;2.70;;;9.60;99.90;;;;;;4779431;29;20366;-56
2022/10/27 04:31:52;;;;;;;10.68;2.85;;;9.60;99.90;;;;;;4777857;29;20433;-57
2022/10/27 04:34:19;;;;;;;15.98;3.78;;;9.60;99.90;;;;;;4778785;29;20414;-57
2022/10/27 04:36:47;;;;;;;8.23;2.28;;;9.60;99.90;;;;;;4791174;29;20441;-56
2022/10/27 04:39:14;;;;;;;6.80;1.85;;;9.60;99.90;;;;;;4779176;29;20221;-56
2022/10/27 04:41:41;;;;;;;4.35;2.17;;;9.60;99.90;;;;;;4779016;29;20408;-56
2022/10/27 04:44:09;;;;;;;5.35;2.15;;;9.60;99.90;;;;;;4779005;29;20057;-56
2022/10/27 04:46:37;;;;;;;6.47;2.13;;;9.60;99.90;;;;;;4791944;29;20316;-57
2022/10/27 04:49:04;;;;;;;6.47;2.00;;;9.60;99.90;;;;;;4776157;29;20854;-56
2022/10/27 04:51:31;;;;;;;8.55;2.67;;;9.60;99.90;;;;;;4767491;29;20544;-56
2022/10/27 04:53:57;;;;;;;;;;;9.60;99.90;;;;;;4778000;29;20257;-57
2022/10/27 04:56:25;;;;;;;6.20;2.08;;;9.60;99.90;;;;;;4779800;29;20061;-57
2022/10/27 04:58:52;;;;;;;7.95;2.38;;;9.60;99.90;;;;;;4771669;29;20317;-56
2022/10/27 05:01:18;;;;;;;;;;;9.70;99.90;;;;;;4779387;29;20233;-57
2022/10/27 05:03:49;;;;;;;5.43;2.05;;;9.70;99.90;;;;;;4769744;29;20225;-56
2022/10/27 05:06:16;;;;;;;5.93;2.33;;;9.70;99.90;;;;;;4761033;29;20313;-57
2022/10/27 05:08:44;;;;;;;7.47;2.55;;;9.70;99.90;;;;;;4768356;29;20503;-55
2022/10/27 05:11:11;;;;;;;4.57;2.30;;;9.70;99.90;;;;;;4791935;29;20762;-55
2022/10/27 05:13:42;;;;;;;7.65;2.53;;;9.60;99.90;;;;;;4761129;29;20271;-55
2022/10/27 05:16:09;;;;;;;11.23;2.65;;;9.60;99.90;;;;;;4778522;29;20467;-55
2022/10/27 05:18:36;;;;;;;13.38;2.58;;;9.60;99.90;;;;;;4791696;29;20522;-55
2022/10/27 05:21:03;;;;;;;;;;;9.70;99.90;;;;;;4794113;29;20161;-54
2022/10/27 05:23:30;;;;;;;11.40;2.47;;;9.70;99.90;;;;;;4791180;29;20597;-56
2022/10/27 05:25:57;;;;;;;6.72;2.83;;;9.70;99.90;;;;;;4791511;29;20479;-56
2022/10/27 05:28:24;;;;;;;16.02;2.80;;;9.70;99.90;;;;;;4783485;29;20654;-55
2022/10/27 05:30:57;;;;;;;8.57;2.08;;;9.80;99.90;;;;;;4777499;29;20221;-55
2022/10/27 05:33:25;;;;;;;8.30;2.70;;;9.80;99.90;;;;;;4791942;29;20068;-55
2022/10/27 05:35:53;;;;;;;7.35;2.53;;;9.80;99.90;;;;;;4791408;29;20590;-55
2022/10/27 05:38:20;;;;;;;6.57;2.15;;;9.80;99.90;;;;;;4768868;29;20309;-54
2022/10/27 05:40:47;;;;;;;9.95;3.03;;;9.80;99.90;;;;;;4778882;29;20227;-57
2022/10/27 05:43:14;;;;;;;10.80;2.72;;;9.80;99.90;;;;;;4768609;29;20117;-55
2022/10/27 05:45:41;;;;;;;9.13;2.13;;;9.90;99.90;;;;;;4778390;29;20309;-56
2022/10/27 05:48:09;;;;;;;8.52;1.88;;;9.90;99.90;;;;;;4790951;29;20240;-55
2022/10/27 05:50:36;;;;;;;8.23;2.20;;;9.90;99.90;;;;;;4777740;29;20597;-55
2022/10/27 05:53:04;;;;;;;5.38;1.65;;;9.90;99.90;;;;;;4774981;29;20273;-53
2022/10/27 05:55:33;;;;;;;5.57;2.35;;;9.90;99.90;;;;;;4778010;29;20578;-53
2022/10/27 05:58:03;;;;;;;6.28;1.90;;;9.90;99.90;;;;;;4778493;29;20139;-57
2022/10/27 06:00:34;;;;;;;5.85;2.03;;;10.00;99.90;;;;;;4780038;29;20390;-56
2022/10/27 06:03:03;;;;;;;6.20;3.10;;;9.90;99.90;;;;;;4774635;29;20375;-56
2022/10/27 06:05:31;;;;;;;7.10;2.35;;;9.90;99.90;;;;;;4776887;29;20388;-56
2022/10/27 06:07:59;;;;;;;3.35;1.85;;;9.90;99.90;;;;;;4790967;29;20064;-57
2022/10/27 06:10:28;;;;;;;6.43;2.92;;;9.90;99.90;;;;;;4760905;29;20339;-57
2022/10/27 06:13:03;;;;;;;6.05;2.40;;;9.90;99.90;;;;;;4790350;29;20916;-58
2022/10/27 06:15:31;;;;;;;5.20;2.05;;;9.90;99.90;;;;;;4767439;29;20140;-58
2022/10/27 06:17:59;;;;;;;5.75;2.60;;;9.90;99.90;;;;;;4777637;29;20997;-58
2022/10/27 06:34:24;;;;;;;8.48;3.05;;;10.00;99.90;;;;;;4863547;29;20091;-56
2022/10/27 06:36:50;;;;;;;7.30;2.17;;;10.00;99.90;;;;;;4862653;29;20147;-55
2022/10/27 06:39:17;;;;;;;13.25;3.45;;;10.10;99.90;;;;;;4868737;29;20462;-55
2022/10/27 06:41:44;;;;;;;8.75;3.10;;;10.10;99.90;;;;;;4865856;29;20045;-55
2022/10/27 06:44:22;;;;;;;13.38;3.10;;;10.20;99.90;;;;;;4859522;29;20669;-54
2022/10/27 06:46:49;;;;;;;10.77;3.47;;;10.20;99.90;;;;;;4863786;29;20049;-57
2022/10/27 06:49:15;;;;;;;9.57;2.75;;;10.30;99.90;;;;;;4861429;29;20466;-57
2022/10/27 06:51:43;;;;;;;6.55;3.03;;;10.30;99.90;;;;;;4858465;29;20606;-56
2022/10/27 06:54:10;;;;;;;10.73;2.65;;;10.20;99.90;;;;;;4857348;29;20720;-58
2022/10/27 06:56:37;;;;;;;7.00;2.40;;;10.30;99.90;;;;;;4857413;29;20562;-57
2022/10/27 06:59:04;;;;;;;7.30;2.78;;;10.30;99.90;;;;;;4863565;29;20056;-54
2022/10/27 07:01:31;;;;;;;8.50;4.38;;;10.30;99.90;;;;;;4861033;29;20052;-54
2022/10/27 07:03:58;;;;;;;7.80;2.88;;;10.40;99.90;;;;;;4859908;29;20041;-57
2022/10/27 07:06:25;;;;;;;;;;;10.40;99.90;;;;;;4857856;29;20049;-56
2022/10/27 07:08:52;;;;;;;12.57;3.72;;;10.40;99.90;;;;;;4855542;29;19927;-56
2022/10/27 07:11:19;;;;;;;10.57;2.92;;;10.50;99.90;;;;;;4862380;29;20040;-56
2022/10/27 07:13:46;;;;;;;9.38;3.80;;;10.50;99.90;;;;;;4859594;29;20053;-57
2022/10/27 07:16:15;;;;;;;;;;;10.60;99.90;;;;;;4854087;29;20049;-56
2022/10/27 07:18:42;;;;;;;5.47;2.63;;;10.70;99.90;;;;;;4857605;29;19936;-57
2022/10/27 07:21:09;;;;;;;;;;;10.80;99.90;;;;;;4857561;29;20124;-56
2022/10/27 07:23:35;;;;;;;9.60;3.20;;;10.90;99.90;;;;;;4858741;29;19927;-56
2022/10/27 07:26:02;;;;;;;6.38;2.95;;;11.00;99.90;;;;;;4852211;29;20063;-57
2022/10/27 07:28:29;;;;;;;11.10;2.70;;;11.00;99.90;;;;;;4856730;29;20732;-58
2022/10/27 07:30:56;;;;;;;17.42;3.05;;;11.20;99.90;;;;;;4859580;29;20113;-57
2022/10/27 07:33:23;;;;;;;;;;;11.30;99.90;;;;;;4858351;29;20049;-55
2022/10/27 07:35:51;;;;;;;10.02;2.60;;;11.50;99.90;;;;;;4856917;29;19927;-56
2022/10/27 07:38:18;;;;;;;12.23;3.22;;;11.70;99.90;;;;;;4837322;29;20171;-55
2022/10/27 07:40:46;;;;;;;5.10;2.05;;;11.90;99.90;;;;;;4841214;29;20061;-55
2022/10/27 07:43:12;;;;;;;5.30;2.53;;;12.20;99.90;;;;;;4850909;29;20050;-55
2022/10/27 07:45:41;;;;;;;8.25;2.45;;;12.50;99.90;;;;;;4857641;29;20056;-56
2022/10/27 07:48:13;;;;;;;6.35;2.53;;;12.60;99.90;;;;;;4853752;29;20578;-54
2022/10/27 07:50:40;;;;;;;7.10;2.42;;;12.70;99.90;;;;;;4854114;29;20611;-53
2022/10/27 07:53:07;;;;;;;10.82;2.60;;;12.80;99.90;;;;;;4853317;29;20037;-56
2022/10/27 07:55:35;;;;;;;7.28;2.15;;;12.90;99.90;;;;;;4857007;29;20049;-54
2022/10/27 07:58:10;;;;;;;5.50;2.42;;;13.00;99.90;;;;;;4853207;29;20049;-55
2022/10/27 08:00:39;;;;;;;10.05;2.80;;;13.10;99.90;;;;;;4858754;29;20053;-53
2022/10/27 08:03:09;;;;;;;5.10;2.45;;;13.40;99.90;;;;;;4862244;29;20587;-55
2022/10/27 08:05:36;;;;;;;4.68;2.67;;;13.60;99.90;;;;;;4855412;29;20049;-54
2022/10/27 08:08:06;;;;;;;7.47;2.45;;;13.90;99.90;;;;;;4852419;29;20283;-55
2022/10/27 08:10:36;;;;;;;8.43;2.60;;;14.30;99.90;;;;;;4855195;29;20126;-55
2022/10/27 08:13:04;;;;;;;7.28;2.72;;;14.80;99.90;;;;;;4858173;29;20518;-57
2022/10/27 08:15:31;;;;;;;7.28;2.72;;;15.40;99.90;;;;;;4859729;29;20221;-55
2022/10/27 08:18:01;;;;;;;11.75;3.10;;;16.00;99.90;;;;;;4860355;29;20078;-54
2022/10/27 08:20:31;;;;;;;7.30;3.55;;;16.60;99.90;;;;;;4856087;29;20048;-56
2022/10/27 08:23:03;;;;;;;10.52;3.03;;;17.10;99.90;;;;;;4861098;29;20063;-57
2022/10/27 08:25:30;;;;;;;11.00;3.25;;;17.60;99.90;;;;;;4856266;29;20049;-55
2022/10/27 08:27:58;;;;;;;9.05;3.05;;;18.00;99.90;;;;;;4854848;29;20085;-55
2022/10/27 08:30:27;;;;;;;7.22;2.53;;;18.40;99.90;;;;;;4851910;29;20566;-55
2022/10/27 08:33:01;;;;;;;8.63;2.30;;;18.70;99.90;;;;;;4855224;29;20041;-56
2022/10/27 08:35:30;;;;;;;7.80;1.77;;;19.00;99.90;;;;;;4850148;29;20140;-55
2022/10/27 08:38:03;;;;;;;7.15;2.75;;;19.30;99.90;;;;;;4850963;29;20112;-56
2022/10/27 08:40:55;;;;;;;13.40;3.35;;;19.50;97.60;;;;;;4854987;29;20097;-57
2022/10/27 08:43:32;;;;;;;14.00;2.67;;;19.80;94.90;;;;;;4854938;29;20045;-57
2022/10/27 08:46:06;;;;;;;10.40;3.00;;;20.10;94.20;;;;;;4851429;29;20136;-57
2022/10/27 08:48:36;;;;;;;6.50;2.03;;;20.40;93.60;;;;;;4856585;29;20045;-55
2022/10/27 08:51:05;;;;;;;15.40;4.38;;;20.60;91.40;;;;;;4854073;29;20521;-56
2022/10/27 08:53:35;;;;;;;9.80;3.35;;;20.80;89.20;;;;;;4854935;29;20041;-55
2022/10/27 08:56:09;;;;;;;7.20;2.80;;;21.10;88.20;;;;;;4851335;29;20037;-57
2022/10/27 08:58:40;;;;;;;12.05;2.70;;;21.40;80.10;;;;;;4840823;29;20177;-56
2022/10/27 09:01:18;;;;;;;11.05;2.38;;;21.60;83.40;;;;;;4853824;29;20048;-55
2022/10/27 09:04:04;;;;;;;12.18;3.30;;;21.80;81.10;;;;;;4855828;29;20686;-56
2022/10/27 09:06:50;;;;;;;8.10;2.80;;;22.00;78.20;;;;;;4857830;29;20060;-55
2022/10/27 09:09:38;;;;;;;15.85;2.78;;;22.10;75.60;;;;;;4854840;29;20760;-57
2022/10/27 09:12:27;;;;;;;8.80;2.25;;;22.20;68.30;;;;;;4855896;29;20045;-57
2022/10/27 09:15:15;;;;;;;10.30;2.20;;;22.40;70.10;;;;;;4852659;29;20131;-57
2022/10/27 09:17:49;;;;;;;10.63;2.33;;;22.60;66.90;;;;;;4855482;29;20053;-57
2022/10/27 09:20:23;;;;;;;9.43;2.28;;;22.70;65.90;;;;;;4855442;29;20055;-58
2022/10/27 09:22:52;;;;;;;9.15;2.88;;;22.90;64.30;;;;;;4851292;29;20064;-57
2022/10/27 09:25:21;;;;;;;6.47;1.88;;;23.10;64.00;;;;;;4832550;29;20053;-56
2022/10/27 09:27:53;;;;;;;10.70;2.95;;;23.20;63.60;;;;;;4856269;29;20301;-57
2022/10/27 09:30:20;;;;;;;5.60;2.80;;;23.40;62.40;;;;;;4854630;29;20049;-56
2022/10/27 09:32:51;;;;;;;7.95;1.67;;;23.50;59.00;;;;;;4857006;29;20399;-57
2022/10/27 09:35:23;;;;;;;8.07;2.92;;;23.70;59.40;;;;;;4855421;29;20094;-58
2022/10/27 09:37:55;;;;;;;8.10;2.17;;;23.90;59.10;;;;;;4850148;29;20057;-57
2022/10/27 09:40:24;;;;;;;12.90;2.92;;;24.10;57.50;;;;;;4853927;29;20666;-58
2022/10/27 09:42:54;;;;;;;7.90;2.80;;;24.20;56.80;;;;;;4851967;29;20049;-57
2022/10/27 09:45:23;;;;;;;8.80;3.15;;;24.20;57.90;;;;;;4856915;29;20305;-58
2022/10/27 09:47:57;;;;;;;12.63;3.65;;;24.30;61.10;;;;;;4856354;29;20056;-58
2022/10/27 09:50:27;;;;;;;10.18;3.17;;;24.50;60.70;;;;;;4848488;29;20543;-58
2022/10/27 09:52:54;;;;;;;8.63;2.65;;;24.60;60.60;;;;;;4856328;29;20513;-59
2022/10/27 09:55:21;;;;;;;11.95;3.13;;;24.60;59.80;;;;;;4852257;29;20049;-57
2022/10/27 09:57:49;;;;;;;12.57;3.17;;;24.70;60.70;;;;;;4857647;29;20544;-58
2022/10/27 10:00:20;;;;;;;10.95;4.30;;;24.90;60.10;;;;;;4848935;29;20530;-58
2022/10/27 10:03:04;;;;;;;17.20;3.50;;;25.00;58.60;;;;;;4856020;29;20053;-57
2022/10/27 10:05:35;;;;;;;9.05;2.70;;;25.00;58.50;;;;;;4851542;29;20271;-55
2022/10/27 10:08:20;;;;;;;14.60;3.42;;;25.00;58.60;;;;;;4853576;29;20075;-58
2022/10/27 10:11:18;;;;;;;7.25;2.80;;;25.00;59.00;;;;;;4855472;29;20049;-56
2022/10/27 10:14:02;;;;;;;11.90;3.72;;;25.10;59.00;;;;;;4847765;29;20056;-57
2022/10/27 10:16:29;;;;;;;14.23;3.80;;;25.20;58.00;;;;;;4856700;29;20462;-56
2022/10/27 10:19:06;;;;;;;12.90;4.22;;;25.30;58.60;;;;;;4853661;29;20279;-54
2022/10/27 10:21:44;;;;;;;12.02;3.85;;;25.40;57.80;;;;;;4852991;29;20049;-58
2022/10/27 10:24:25;;;;;;;12.15;3.55;;;25.50;56.80;;;;;;4852683;29;20596;-56
2022/10/27 10:26:57;;;;;;;16.92;4.47;;;25.40;56.10;;;;;;4853432;29;20144;-58
2022/10/27 10:29:36;;;;;;;12.48;4.32;;;25.40;56.70;;;;;;4853600;29;20499;-58
2022/10/27 10:32:13;;;;;;;11.82;4.57;;;25.50;56.30;;;;;;4847554;29;20048;-57
2022/10/27 10:34:44;;;;;;;11.93;3.75;;;25.60;56.10;;;;;;4860420;29;20137;-58
2022/10/27 10:37:46;;;;;;;14.43;4.80;;;25.90;55.00;;;;;;4858875;29;20081;-58
2022/10/27 10:40:13;;;;;;;13.00;5.32;;;25.90;54.40;;;;;;4855958;29;20053;-57
2022/10/27 10:42:43;;;;;;;13.55;5.20;;;26.10;56.00;;;;;;4854565;29;20056;-58
2022/10/27 10:45:20;;;;;;;15.15;5.28;;;26.10;54.70;;;;;;4852362;29;20382;-57
2022/10/27 10:47:55;;;;;;;18.73;6.15;;;26.20;54.90;;;;;;4853230;29;20045;-62
2022/10/27 10:50:22;;;;;;;12.13;6.20;;;26.20;54.90;;;;;;4854261;29;20561;-57
2022/10/27 10:52:52;;;;;;;12.00;5.22;;;26.10;54.60;;;;;;4849739;29;20509;-56
2022/10/27 10:55:24;;;;;;;17.10;6.68;;;26.20;54.50;;;;;;4853506;29;20109;-61
2022/10/27 10:57:54;;;;;;;18.20;6.13;;;26.20;54.30;;;;;;4852510;29;20049;-59
2022/10/27 11:00:21;;;;;;;10.38;5.53;;;26.10;54.80;;;;;;4852998;29;20059;-59
2022/10/27 11:03:10;;;;;;;13.45;5.72;;;26.20;54.10;;;;;;4851947;29;20149;-54
2022/10/27 11:05:37;;;;;;;14.75;5.55;;;26.30;53.20;;;;;;4847442;29;20101;-56
2022/10/27 11:08:04;;;;;;;15.77;5.53;;;26.30;53.70;;;;;;4851519;29;20149;-55
2022/10/27 11:10:40;;;;;;;13.93;6.55;;;26.40;53.90;;;;;;4853386;29;20049;-57
2022/10/27 11:13:17;;;;;;;16.30;6.95;;;26.50;53.60;;;;;;4860150;29;20583;-56
2022/10/27 11:15:53;;;;;;;16.55;6.22;;;26.50;55.70;;;;;;4858309;29;20047;-57
2022/10/27 11:18:32;;;;;;;16.50;6.07;;;26.50;55.80;;;;;;4858806;29;20137;-55
2022/10/27 11:21:13;;;;;;;16.10;5.93;;;26.50;55.00;;;;;;4862067;29;20060;-57
2022/10/27 11:23:49;;;;;;;19.77;5.82;;;26.50;55.60;;;;;;4858207;29;20097;-58
2022/10/27 11:26:21;;;;;;;21.05;6.95;;;26.50;54.80;;;;;;4857355;29;20056;-57
2022/10/27 11:29:03;;;;;;;12.68;5.15;;;26.50;56.10;;;;;;4854893;29;20053;-55
2022/10/27 11:31:55;;;;;;;12.85;5.15;;;26.50;56.30;;;;;;4858528;29;20319;-57
2022/10/27 11:34:43;;;;;;;29.52;6.15;;;26.60;55.80;;;;;;4857992;29;20045;-56
2022/10/27 11:37:26;;;;;;;18.40;6.40;;;26.60;56.20;;;;;;4848980;29;20152;-55
2022/10/27 11:40:00;;;;;;;13.75;4.72;;;26.70;55.90;;;;;;4858619;29;20070;-58
2022/10/27 11:42:42;;;;;;;20.02;5.88;;;26.70;55.50;;;;;;4839001;29;20045;-55
2022/10/27 11:45:35;;;;;;;14.00;4.50;;;26.80;55.50;;;;;;4858597;29;20658;-58
2022/10/27 11:48:28;;;;;;;10.07;3.72;;;26.80;55.60;;;;;;4831750;29;20064;-59
2022/10/27 11:51:10;;;;;;;13.35;3.88;;;26.80;55.60;;;;;;4852592;29;20504;-57
2022/10/27 11:53:36;;;;;;;16.15;4.45;;;26.80;55.80;;;;;;4860866;29;20044;-57
2022/10/27 11:56:26;;;;;;;13.57;4.70;;;26.80;55.90;;;;;;4853487;29;20512;-55
2022/10/27 11:59:17;;;;;;;9.25;4.88;;;26.80;56.90;;;;;;4855806;29;20041;-57
2022/10/27 12:02:13;;;;;;;18.92;4.97;;;26.70;56.60;;;;;;4858555;29;20044;-57
2022/10/27 12:04:53;;;;;;;10.70;4.68;;;26.70;57.00;;;;;;4829378;29;20061;-57
2022/10/27 12:07:42;;;;;;;22.80;5.18;;;26.70;57.00;;;;;;4854838;29;20065;-57
2022/10/27 12:10:23;;;;;;;8.98;4.22;;;26.70;57.50;;;;;;4857698;29;20792;-57
2022/10/27 12:12:57;;;;;;;12.27;4.40;;;26.70;57.20;;;;;;4851423;29;20097;-55
2022/10/27 12:15:56;;;;;;;18.13;4.80;;;26.70;57.20;;;;;;4850849;29;20053;-57
2022/10/27 12:18:53;;;;;;;24.55;5.15;;;26.60;56.90;;;;;;4855712;29;20053;-56
2022/10/27 12:21:27;;;;;;;18.75;6.47;;;26.50;57.50;;;;;;4854551;29;20052;-56
2022/10/27 12:24:01;;;;;;;13.68;5.35;;;26.40;58.40;;;;;;4850658;29;20422;-55
2022/10/27 12:26:46;;;;;;;23.10;6.00;;;26.40;59.00;;;;;;4860249;29;20136;-56
2022/10/27 12:29:15;;;;;;;29.23;6.53;;;26.40;58.40;;;;;;4854718;29;20085;-61
2022/10/27 12:31:50;;;;;;;19.70;6.32;;;26.40;58.20;;;;;;4856285;29;20059;-56
2022/10/27 12:34:20;;;;;;;15.02;5.35;;;26.50;59.10;;;;;;4858632;29;20108;-54
2022/10/27 12:36:51;;;;;;;12.02;4.85;;;26.40;58.80;;;;;;4852889;29;20339;-57
2022/10/27 12:39:27;;;;;;;12.10;4.57;;;26.40;58.80;;;;;;4854017;29;20477;-57
2022/10/27 12:42:10;;;;;;;26.38;7.93;;;26.30;59.30;;;;;;4831524;29;20053;-56
2022/10/27 12:44:58;;;;;;;22.73;6.20;;;26.20;60.30;;;;;;4840428;29;20456;-57
2022/10/27 12:47:37;;;;;;;12.00;4.38;;;26.20;61.50;;;;;;4834845;29;20064;-55
2022/10/27 12:50:27;;;;;;;12.60;5.15;;;26.20;60.30;;;;;;4834106;29;20063;-56
2022/10/27 12:53:09;;;;;;;8.75;4.20;;;26.20;60.80;;;;;;4850483;29;20041;-57
2022/10/27 12:55:52;;;;;;;9.15;3.75;;;26.30;59.40;;;;;;4816516;29;20080;-57
2022/10/27 12:58:33;;;;;;;14.60;4.68;;;26.40;59.50;;;;;;4849591;29;20145;-57
2022/10/27 13:01:09;;;;;;;13.35;4.88;;;26.50;60.50;;;;;;4851384;29;20092;-56
2022/10/27 13:04:15;;;;;;;15.93;5.35;;;26.50;59.50;;;;;;4859894;29;20555;-56
2022/10/27 13:07:02;;;;;;;11.38;4.50;;;26.60;59.70;;;;;;4855238;29;20106;-55
2022/10/27 13:09:58;;;;;;;11.75;5.10;;;26.60;59.80;;;;;;4855378;29;20514;-55
2022/10/27 13:12:40;;;;;;;9.02;4.85;;;26.70;59.00;;;;;;4850990;29;20418;-56
2022/10/27 13:15:28;;;;;;;9.93;4.20;;;26.60;59.10;;;;;;4856507;29;20504;-57
2022/10/27 13:18:27;;;;;;;12.88;3.78;;;26.70;59.70;;;;;;4850805;29;20056;-57
2022/10/27 13:21:05;;;;;;;11.57;4.38;;;26.80;58.90;;;;;;4853376;29;20054;-56
2022/10/27 13:24:00;;;;;;;16.42;4.28;;;26.90;58.80;;;;;;4845586;29;20501;-57
2022/10/27 13:27:01;;;;;;;15.10;4.78;;;27.00;58.70;;;;;;4855729;29;20153;-56
2022/10/27 13:29:29;;;;;;;14.07;4.68;;;26.90;59.00;;;;;;4857909;29;20517;-56
2022/10/27 13:32:27;;;;;;;10.10;4.07;;;26.90;58.40;;;;;;4831014;29;20041;-56
2022/10/27 13:35:01;;;;;;;5.90;4.22;;;26.90;59.10;;;;;;4850776;29;20129;-56